Time;durP1;ratioP1;P1;durP2;ratioP2;P2;SDS_P1;SDS_P2;PMS_P1;PMS_P2;Temp;Humidity;BMP_temperature;BMP_pressure;BME280_temperature;BME280_humidity;BME280_pressure;Samples;Min_cycle;Max_cycle;Signal;HPM_P1;HPM_P2
2022/12/01 00:03:03;;;;;;;15.75;14.15;;;;;;;2.42;100.00;99193.50;15275487;19;20475;-54
2022/12/01 00:08:30;;;;;;;16.88;15.10;;;;;;;2.38;100.00;99192.00;15275312;19;20471;-56
2022/12/01 00:13:55;;;;;;;16.73;15.02;;;;;;;2.38;100.00;99199.09;15283265;19;20105;-54
2022/12/01 00:19:19;;;;;;;18.48;16.58;;;;;;;2.34;100.00;99195.78;15277464;19;20022;-58
2022/12/01 00:24:54;;;;;;;17.70;15.90;;;;;;;2.34;100.00;99198.44;15272292;19;20026;-55
2022/12/01 00:30:21;;;;;;;19.13;16.60;;;;;;;2.31;100.00;99188.84;15277249;19;20049;-56
2022/12/01 00:35:45;;;;;;;21.83;16.80;;;;;;;2.23;100.00;99201.75;15278314;19;20348;-54
2022/12/01 00:41:13;;;;;;;19.88;16.48;;;;;;;2.19;100.00;99194.00;15273685;19;20015;-55
2022/12/01 00:46:37;;;;;;;17.73;15.88;;;;;;;2.17;100.00;99194.09;15278652;19;20078;-57
2022/12/01 00:52:02;;;;;;;21.30;17.92;;;;;;;2.11;100.00;99195.31;15276920;19;20035;-57
2022/12/01 00:57:29;;;;;;;21.48;17.55;;;;;;;2.10;100.00;99196.25;15282306;19;20019;-54
2022/12/01 01:02:54;;;;;;;20.58;18.20;;;;;;;2.07;100.00;99211.53;15274140;19;20011;-54
2022/12/01 01:08:21;;;;;;;20.80;18.60;;;;;;;1.97;100.00;99200.56;15277697;19;20475;-54
2022/12/01 01:13:48;;;;;;;22.38;18.83;;;;;;;1.93;100.00;99204.34;15277989;19;20018;-53
2022/12/01 01:19:13;;;;;;;21.52;19.27;;;;;;;1.88;100.00;99195.78;15272785;19;20706;-56
2022/12/01 01:24:44;;;;;;;21.65;19.05;;;;;;;1.82;100.00;99191.66;15274851;19;20082;-50
2022/12/01 01:30:13;;;;;;;21.97;18.93;;;;;;;1.81;100.00;99182.84;15271561;19;20014;-54
2022/12/01 01:35:38;;;;;;;20.75;18.58;;;;;;;1.87;100.00;99183.44;15274036;19;20019;-53
2022/12/01 01:41:04;;;;;;;22.50;18.40;;;;;;;1.85;100.00;99184.38;15272586;19;20611;-56
2022/12/01 01:46:32;;;;;;;22.73;19.67;;;;;;;1.79;100.00;99182.06;15273675;19;20416;-57
2022/12/01 01:51:57;;;;;;;23.40;19.70;;;;;;;1.71;100.00;99194.91;15273569;19;20042;-53
2022/12/01 01:57:27;;;;;;;25.20;20.65;;;;;;;1.74;100.00;99210.69;15273115;19;20620;-55
2022/12/01 02:02:55;;;;;;;22.35;19.63;;;;;;;1.76;100.00;99223.91;15271890;19;20018;-55
2022/12/01 02:08:21;;;;;;;24.10;20.98;;;;;;;1.66;100.00;99224.38;15267442;19;20018;-53
2022/12/01 02:13:56;;;;;;;24.17;20.58;;;;;;;1.57;100.00;99213.44;15273920;19;20082;-53
2022/12/01 02:19:48;;;;;;;22.92;20.35;;;;;;;1.53;100.00;99194.13;15265675;19;20422;-52
2022/12/01 02:25:35;;;;;;;22.73;20.27;;;;;;;1.49;100.00;99189.94;15266488;19;20014;-51
2022/12/01 02:31:10;;;;;;;23.38;20.38;;;;;;;1.49;100.00;99193.44;15269729;19;20078;-52
2022/12/01 02:36:43;;;;;;;23.38;20.40;;;;;;;1.44;100.00;99187.56;15272496;19;20484;-53
2022/12/01 02:42:48;;;;;;;23.77;21.23;;;;;;;1.47;100.00;99197.97;15269937;19;20022;-54
2022/12/01 02:48:08;;;;;;;27.90;21.33;;;;;;;1.43;100.00;99191.16;15273619;19;20490;-58
2022/12/01 02:53:33;;;;;;;28.00;22.65;;;;;;;1.44;100.00;99198.19;15269306;19;20425;-56
2022/12/01 02:58:59;;;;;;;32.50;25.05;;;;;;;1.42;100.00;99207.13;15264227;19;20029;-56
2022/12/01 03:04:47;;;;;;;31.45;24.48;;;;;;;1.38;100.00;99204.69;15272584;19;20566;-52
2022/12/01 03:10:22;;;;;;;34.47;26.42;;;;;;;1.38;100.00;99203.81;15273257;19;20473;-56
2022/12/01 03:15:55;;;;;;;40.60;27.88;;;;;;;1.32;100.00;99205.00;15282300;19;20038;-56
2022/12/01 03:21:36;;;;;;;44.00;30.25;;;;;;;1.25;100.00;99202.75;15280901;19;20565;-56
2022/12/01 03:27:04;;;;;;;43.80;30.73;;;;;;;1.26;100.00;99209.78;15285383;19;20014;-54
2022/12/01 03:32:33;;;;;;;54.33;32.38;;;;;;;1.24;100.00;99212.53;15279389;19;20023;-57
2022/12/01 03:38:06;;;;;;;44.83;30.40;;;;;;;1.26;100.00;99217.75;15284776;19;20014;-54
2022/12/01 03:43:35;;;;;;;46.95;30.90;;;;;;;1.25;100.00;99224.00;15277174;19;20018;-55
2022/12/01 03:49:02;;;;;;;45.95;30.40;;;;;;;1.22;100.00;99231.19;15276586;19;20022;-55
2022/12/01 03:54:37;;;;;;;50.97;31.95;;;;;;;1.25;100.00;99221.34;15281669;19;20018;-56
2022/12/01 04:00:03;;;;;;;54.78;32.65;;;;;;;1.21;100.00;99231.25;15275627;19;20045;-54
2022/12/01 04:05:27;;;;;;;59.38;32.65;;;;;;;1.18;100.00;99237.59;15281686;19;20766;-51
2022/12/01 04:10:55;;;;;;;59.88;34.45;;;;;;;1.16;100.00;99236.81;15275666;19;20376;-55
2022/12/01 04:16:19;;;;;;;68.25;34.30;;;;;;;1.17;100.00;99238.53;15281032;19;20025;-54
2022/12/01 04:21:44;;;;;;;81.22;33.58;;;;;;;1.12;100.00;99229.94;15277772;19;20632;-62
2022/12/01 04:27:12;;;;;;;69.85;32.75;;;;;;;1.04;100.00;99241.00;15281225;19;20018;-62
2022/12/01 04:32:40;;;;;;;96.70;34.22;;;;;;;0.98;100.00;99254.56;15281134;19;20024;-60
2022/12/01 04:38:04;;;;;;;74.63;35.75;;;;;;;0.97;100.00;99257.31;15283872;19;20023;-60
2022/12/01 04:43:31;;;;;;;72.05;35.35;;;;;;;0.96;100.00;99260.91;15274797;19;20025;-59
2022/12/01 04:48:56;;;;;;;74.43;36.88;;;;;;;0.95;100.00;99264.50;15279386;19;20861;-55
2022/12/01 04:54:21;;;;;;;71.47;36.88;;;;;;;0.95;100.00;99269.78;15279233;19;20019;-55
2022/12/01 04:59:48;;;;;;;80.60;36.83;;;;;;;0.96;100.00;99276.81;15278279;19;20491;-53
2022/12/01 05:05:14;;;;;;;88.20;36.17;;;;;;;0.94;100.00;99290.19;15279918;19;20019;-53
2022/12/01 05:10:42;;;;;;;120.50;35.80;;;;;;;0.90;100.00;99278.84;15265050;19;20022;-53
2022/12/01 05:16:12;;;;;;;156.65;30.80;;;;;;;0.81;100.00;99283.78;15274601;19;20021;-53
2022/12/01 05:21:44;;;;;;;128.63;29.37;;;;;;;0.67;100.00;99281.81;15272872;19;20730;-55
2022/12/01 05:27:09;;;;;;;89.10;30.57;;;;;;;0.63;100.00;99277.63;15277422;19;20263;-58
2022/12/01 05:32:36;;;;;;;150.32;31.77;;;;;;;0.57;100.00;99281.44;15273638;19;20291;-55
2022/12/01 05:38:01;;;;;;;223.85;32.33;;;;;;;0.53;100.00;99278.03;15276746;19;20014;-57
2022/12/01 05:43:26;;;;;;;249.48;33.22;;;;;;;0.52;100.00;99278.13;15273867;19;20019;-55
2022/12/01 05:48:54;;;;;;;140.18;33.42;;;;;;;0.52;100.00;99281.66;15278196;19;20019;-56
2022/12/01 05:54:18;;;;;;;171.05;35.42;;;;;;;0.52;100.00;99289.63;15277649;19;20028;-56
2022/12/01 05:59:43;;;;;;;93.13;34.65;;;;;;;0.53;100.00;99296.59;15263420;19;20400;-57
2022/12/01 06:05:10;;;;;;;196.18;38.67;;;;;;;0.52;100.00;99294.91;15268670;19;20019;-58
2022/12/01 06:10:35;;;;;;;225.50;40.80;;;;;;;0.52;100.00;99300.22;15281997;19;20022;-59
2022/12/01 06:16:10;;;;;;;302.70;40.50;;;;;;;0.51;100.00;99306.47;15297428;19;20031;-58
2022/12/01 06:21:37;;;;;;;145.40;37.53;;;;;;;0.49;100.00;99305.66;15290141;19;20027;-59
2022/12/01 06:27:02;;;;;;;433.58;39.67;;;;;;;0.42;100.00;99304.22;15271397;19;20021;-58
2022/12/01 06:32:27;;;;;;;331.50;40.50;;;;;;;0.37;100.00;99323.03;15266009;19;20014;-55
2022/12/01 06:37:54;;;;;;;626.42;44.13;;;;;;;0.33;100.00;99326.78;15271161;19;20021;-56
2022/12/01 06:43:25;;;;;;;497.35;42.13;;;;;;;0.35;100.00;99334.63;15264363;19;20018;-55
2022/12/01 06:48:50;;;;;;;310.17;40.05;;;;;;;0.35;100.00;99335.50;15267714;19;20018;-57
2022/12/01 06:54:20;;;;;;;430.58;41.92;;;;;;;0.29;100.00;99336.63;15262693;19;20015;-56
2022/12/01 06:59:45;;;;;;;313.95;40.75;;;;;;;0.24;100.00;99341.31;15268092;19;20508;-55
2022/12/01 07:05:09;;;;;;;381.77;41.08;;;;;;;0.24;100.00;99337.78;15261942;19;20024;-55
2022/12/01 07:10:37;;;;;;;547.58;41.97;;;;;;;0.16;100.00;99346.13;15265106;19;20074;-53
2022/12/01 07:16:01;;;;;;;523.72;43.38;;;;;;;0.13;100.00;99351.56;15267020;19;20020;-57
2022/12/01 07:21:26;;;;;;;501.25;43.88;;;;;;;0.15;100.00;99360.31;15262215;19;20033;-57
2022/12/01 07:26:53;;;;;;;428.77;43.08;;;;;;;0.14;100.00;99370.03;15262932;19;20018;-55
2022/12/01 07:32:18;;;;;;;591.10;43.55;;;;;;;0.14;100.00;99367.38;15262318;19;20007;-55
2022/12/01 07:37:42;;;;;;;533.85;42.55;;;;;;;0.12;100.00;99385.13;15270130;19;20025;-56
2022/12/01 07:43:10;;;;;;;410.70;41.75;;;;;;;0.14;100.00;99390.38;15268980;19;20018;-58
2022/12/01 07:48:37;;;;;;;340.85;38.97;;;;;;;0.05;100.00;99394.31;15268220;19;20089;-53
2022/12/01 07:54:05;;;;;;;275.70;35.72;;;;;;;0.07;100.00;99394.22;15268525;19;20018;-54
2022/12/01 07:59:32;;;;;;;152.45;32.67;;;;;;;0.03;100.00;99392.66;15280503;19;20030;-56
2022/12/01 08:04:57;;;;;;;168.43;31.30;;;;;;;-0.01;100.00;99398.09;15276630;19;20014;-53
2022/12/01 08:10:21;;;;;;;195.27;31.10;;;;;;;-0.02;100.00;99384.94;15281257;19;20029;-56
2022/12/01 08:15:48;;;;;;;103.93;28.38;;;;;;;-0.04;100.00;99385.00;15279482;19;20561;-57
2022/12/01 08:21:14;;;;;;;53.30;26.42;;;;;;;-0.07;100.00;99395.75;15280160;19;20040;-56
2022/12/01 08:26:39;;;;;;;83.30;28.67;;;;;;;-0.08;100.00;99391.38;15278646;19;20472;-56
2022/12/01 08:32:07;;;;;;;90.68;27.40;;;;;;;-0.08;100.00;99393.16;15279509;19;20046;-57
2022/12/01 08:37:32;;;;;;;83.68;26.90;;;;;;;-0.11;100.00;99390.63;15282306;19;20093;-55
2022/12/01 08:42:56;;;;;;;72.85;26.55;;;;;;;-0.10;100.00;99390.59;15278839;19;20022;-55
2022/12/01 08:48:24;;;;;;;61.78;25.48;;;;;;;-0.10;100.00;99393.22;15280798;19;20082;-55
2022/12/01 08:53:51;;;;;;;64.50;25.35;;;;;;;-0.10;100.00;99397.66;15278062;19;20399;-55
2022/12/01 08:59:16;;;;;;;64.38;25.52;;;;;;;-0.08;100.00;99396.69;15277306;19;20707;-56
2022/12/01 09:04:43;;;;;;;84.97;25.77;;;;;;;-0.08;100.00;99395.81;15276136;19;20363;-56
2022/12/01 09:10:10;;;;;;;58.90;25.08;;;;;;;-0.06;100.00;99405.38;15271945;19;20021;-56
2022/12/01 09:15:34;;;;;;;48.15;24.63;;;;;;;-0.08;100.00;99407.28;15281394;19;20019;-55
2022/12/01 09:21:02;;;;;;;46.40;22.25;;;;;;;-0.10;100.00;99406.47;15274591;19;20018;-57
2022/12/01 09:26:34;;;;;;;37.55;21.48;;;;;;;-0.04;100.00;99411.47;15274184;19;20018;-57
2022/12/01 09:32:00;;;;;;;41.50;22.23;;;;;;;-0.05;100.00;99395.66;15275207;19;20042;-55
2022/12/01 09:37:28;;;;;;;45.97;22.38;;;;;;;-0.02;100.00;99403.47;15279195;19;20018;-55
2022/12/01 09:42:53;;;;;;;38.88;20.95;;;;;;;-0.01;100.00;99403.41;15277367;19;20397;-55
2022/12/01 09:48:25;;;;;;;39.28;21.67;;;;;;;0.01;100.00;99389.22;15276964;19;20523;-53
2022/12/01 09:53:55;;;;;;;45.55;20.40;;;;;;;0.07;100.00;99391.59;15275099;19;20387;-56
2022/12/01 09:59:27;;;;;;;41.30;22.60;;;;;;;0.09;100.00;99381.78;15276196;19;20425;-56
2022/12/01 10:04:55;;;;;;;46.60;22.97;;;;;;;0.11;100.00;99379.91;15270763;19;20353;-56
2022/12/01 10:10:25;;;;;;;53.92;23.35;;;;;;;0.13;100.00;99372.75;15267293;19;20345;-56
2022/12/01 10:15:55;;;;;;;55.50;22.65;;;;;;;0.09;100.00;99368.53;15276366;19;20040;-57
2022/12/01 10:21:27;;;;;;;38.65;20.80;;;;;;;0.10;100.00;99354.34;15268884;19;20029;-53
2022/12/01 10:27:11;;;;;;;45.35;21.50;;;;;;;0.08;100.00;99349.13;15273053;19;20018;-55
2022/12/01 10:32:46;;;;;;;39.63;21.83;;;;;;;0.13;100.00;99343.63;15271629;19;20376;-55
2022/12/01 10:38:13;;;;;;;53.08;22.63;;;;;;;0.14;100.00;99340.03;15273343;19;20094;-53
2022/12/01 10:43:50;;;;;;;42.55;22.88;;;;;;;0.17;100.00;99334.59;15273306;19;20019;-53
2022/12/01 10:49:19;;;;;;;38.63;21.55;;;;;;;0.23;100.00;99341.41;15272329;19;20037;-55
2022/12/01 10:54:44;;;;;;;37.10;20.77;;;;;;;0.28;100.00;99340.25;15273291;19;20022;-56
2022/12/01 11:00:28;;;;;;;38.10;21.88;;;;;;;0.30;100.00;99348.97;15270840;19;20026;-56
2022/12/01 11:06:13;;;;;;;43.70;22.85;;;;;;;0.23;100.00;99342.25;15266199;19;20024;-54
2022/12/01 11:11:42;;;;;;;41.78;22.00;;;;;;;0.24;100.00;99348.38;15266276;19;20031;-58
2022/12/01 11:17:32;;;;;;;41.33;21.63;;;;;;;0.23;100.00;99342.25;15271484;19;20025;-56
2022/12/01 11:22:56;;;;;;;43.17;22.13;;;;;;;0.23;100.00;99331.66;15271082;19;20344;-55
2022/12/01 11:28:22;;;;;;;52.00;23.83;;;;;;;0.25;100.00;99328.91;15271798;19;20027;-55
2022/12/01 11:33:54;;;;;;;53.42;25.40;;;;;;;0.24;100.00;99328.06;15285144;19;20034;-55
2022/12/01 11:39:27;;;;;;;48.60;24.15;;;;;;;0.22;100.00;99327.28;15284328;19;20019;-56
2022/12/01 11:44:57;;;;;;;47.08;24.30;;;;;;;0.21;100.00;99322.06;15280279;19;20081;-55
2022/12/01 11:50:29;;;;;;;46.70;23.05;;;;;;;0.22;100.00;99324.63;15278850;19;20127;-56
2022/12/01 11:55:54;;;;;;;51.00;25.02;;;;;;;0.20;100.00;99318.53;15283754;19;20019;-56
2022/12/01 12:01:29;;;;;;;60.72;26.88;;;;;;;0.16;100.00;99319.63;15274850;19;20047;-59
2022/12/01 12:07:04;;;;;;;83.80;27.73;;;;;;;0.18;100.00;99315.09;15283753;19;20029;-55
2022/12/01 12:12:44;;;;;;;64.97;28.52;;;;;;;0.23;100.00;99309.59;15278531;19;20024;-55
2022/12/01 12:18:25;;;;;;;230.43;29.15;;;;;;;0.21;100.00;99311.47;15282276;19;20037;-56
2022/12/01 12:24:12;;;;;;;94.40;29.33;;;;;;;0.26;100.00;99314.72;15279282;19;20075;-55
2022/12/01 12:29:55;;;;;;;123.05;29.65;;;;;;;0.20;100.00;99310.59;15279334;19;20296;-54
2022/12/01 12:35:33;;;;;;;73.63;29.42;;;;;;;0.18;100.00;99301.84;15281937;19;20023;-57
2022/12/01 12:41:05;;;;;;;81.40;31.33;;;;;;;0.18;100.00;99303.66;15275281;19;20018;-55
2022/12/01 12:46:42;;;;;;;89.80;30.48;;;;;;;0.19;100.00;99314.16;15276280;19;20018;-52
2022/12/01 12:52:10;;;;;;;207.05;33.35;;;;;;;0.17;100.00;99323.13;15275800;19;20019;-53
2022/12/01 12:57:42;;;;;;;137.90;33.47;;;;;;;0.15;100.00;99312.59;15280343;19;20018;-57
2022/12/01 13:03:13;;;;;;;95.82;32.05;;;;;;;0.11;100.00;99313.69;15280167;19;20014;-55
2022/12/01 13:08:43;;;;;;;116.45;32.67;;;;;;;0.11;100.00;99317.19;15281290;19;20018;-56
2022/12/01 13:14:16;;;;;;;81.53;33.13;;;;;;;0.16;100.00;99324.94;15278957;19;20022;-55
2022/12/01 13:19:45;;;;;;;84.22;33.47;;;;;;;0.16;100.00;99314.34;15279507;19;20022;-54
2022/12/01 13:25:21;;;;;;;79.07;32.35;;;;;;;0.13;100.00;99312.66;15275327;19;20018;-54
2022/12/01 13:31:03;;;;;;;86.03;32.55;;;;;;;0.15;100.00;99316.09;15277451;19;20046;-56
2022/12/01 13:36:35;;;;;;;109.13;33.45;;;;;;;0.11;100.00;99311.03;15277288;19;20472;-56
2022/12/01 13:42:07;;;;;;;83.70;34.05;;;;;;;0.10;100.00;99301.34;14762329;19;10000536;-60
2022/12/01 13:47:46;;;;;;;80.85;34.35;;;;;;;0.11;100.00;99308.38;15278364;19;20011;-59
2022/12/01 13:53:14;;;;;;;73.30;32.40;;;;;;;0.13;100.00;99306.50;15275101;19;20026;-56
2022/12/01 13:58:55;;;;;;;78.85;32.95;;;;;;;0.12;100.00;99307.44;15274963;19;20018;-53
2022/12/01 14:04:33;;;;;;;82.53;33.50;;;;;;;0.11;100.00;99295.13;15274362;19;20035;-54
2022/12/01 14:10:00;;;;;;;92.75;34.22;;;;;;;0.07;100.00;99293.53;15269696;19;20417;-54
2022/12/01 14:15:41;;;;;;;94.43;34.95;;;;;;;0.05;100.00;99287.50;15275186;19;20291;-55
2022/12/01 14:21:09;;;;;;;135.53;36.53;;;;;;;0.03;100.00;99295.50;15269648;19;20680;-57
2022/12/01 14:26:50;;;;;;;95.53;37.63;;;;;;;0.01;100.00;99300.00;15272262;19;20287;-56
2022/12/01 14:32:24;;;;;;;87.70;35.37;;;;;;;0.00;100.00;99298.31;15271650;19;20021;-57
2022/12/01 14:37:56;;;;;;;84.30;35.22;;;;;;;-0.01;100.00;99308.03;15167904;19;2004571;-55
2022/12/01 14:48:58;;;;;;;104.43;35.17;;;;;;;-0.04;100.00;99304.66;15296289;19;20018;-56
2022/12/01 14:54:32;;;;;;;88.07;35.40;;;;;;;-0.05;100.00;99300.31;15272109;19;20024;-56
2022/12/01 15:00:10;;;;;;;217.75;38.33;;;;;;;-0.08;100.00;99298.66;15270469;19;20074;-56
2022/12/01 15:05:42;;;;;;;117.35;39.58;;;;;;;-0.04;100.00;99304.66;15274985;19;20014;-56
2022/12/01 15:11:11;;;;;;;93.72;34.90;;;;;;;-0.09;100.00;99299.59;15282764;19;20024;-56
2022/12/01 15:16:42;;;;;;;101.88;36.83;;;;;;;-0.09;100.00;99296.94;15287113;19;20042;-58
2022/12/01 15:22:11;;;;;;;92.23;35.57;;;;;;;-0.11;100.00;99290.84;15281448;19;20019;-57
2022/12/01 15:27:39;;;;;;;88.18;35.15;;;;;;;-0.10;100.00;99299.66;15281980;19;20251;-56
2022/12/01 15:33:05;;;;;;;105.60;37.13;;;;;;;-0.09;100.00;99291.66;15286133;19;20104;-52
2022/12/01 15:38:33;;;;;;;98.93;37.97;;;;;;;-0.06;100.00;99294.13;15286910;19;20026;-56
2022/12/01 15:44:07;;;;;;;102.05;37.08;;;;;;;-0.06;100.00;99302.06;15281307;19;20017;-51
2022/12/01 15:49:31;;;;;;;98.18;37.85;;;;;;;-0.07;100.00;99304.81;15283500;19;20023;-53
2022/12/01 15:54:58;;;;;;;115.95;39.95;;;;;;;-0.10;100.00;99311.13;15284159;19;20026;-58
2022/12/01 16:00:31;;;;;;;127.18;40.78;;;;;;;-0.10;100.00;99310.25;15282166;19;20010;-55
2022/12/01 16:05:56;;;;;;;103.68;40.00;;;;;;;-0.15;100.00;99315.75;15278889;19;20019;-52
2022/12/01 16:11:23;;;;;;;154.90;41.25;;;;;;;-0.16;100.00;99321.97;15278732;19;20027;-55
2022/12/01 16:16:52;;;;;;;373.10;42.17;;;;;;;-0.19;100.00;99319.50;15279567;19;20753;-56
2022/12/01 16:22:23;;;;;;;572.00;46.22;;;;;;;-0.20;100.00;99323.06;15275557;19;20031;-56
2022/12/01 16:27:59;;;;;;;427.40;46.33;;;;;;;-0.20;100.00;99331.00;15277140;19;20024;-54
2022/12/01 16:33:29;;;;;;;537.80;48.28;;;;;;;-0.25;100.00;99330.34;15282186;19;20022;-53
2022/12/01 16:38:54;;;;;;;452.67;48.08;;;;;;;-0.30;100.00;99335.03;15276132;19;20022;-52
2022/12/01 16:44:19;;;;;;;556.63;51.47;;;;;;;-0.32;100.00;99338.59;15277665;19;20787;-52
2022/12/01 16:49:49;;;;;;;525.85;52.08;;;;;;;-0.34;100.00;99353.69;15278436;19;20022;-55
2022/12/01 16:55:33;;;;;;;308.30;50.17;;;;;;;-0.36;100.00;99350.25;15277580;19;20018;-52
2022/12/01 17:00:58;;;;;;;283.58;52.28;;;;;;;-0.36;100.00;99360.00;15272002;19;20022;-53
2022/12/01 17:06:27;;;;;;;267.15;52.67;;;;;;;-0.40;100.00;99353.94;15274599;19;20027;-53
2022/12/01 17:11:55;;;;;;;280.13;53.50;;;;;;;-0.43;100.00;99359.41;15271688;19;20078;-55
2022/12/01 17:17:19;;;;;;;243.35;53.05;;;;;;;-0.42;100.00;99368.19;15278321;19;20018;-51
2022/12/01 17:22:47;;;;;;;221.30;51.55;;;;;;;-0.40;100.00;99353.94;15272828;19;20021;-53
2022/12/01 17:28:12;;;;;;;169.60;48.53;;;;;;;-0.38;100.00;99361.84;15270294;19;20023;-52
2022/12/01 17:33:37;;;;;;;193.43;48.72;;;;;;;-0.38;100.00;99357.38;15275829;19;20765;-52
2022/12/01 17:39:05;;;;;;;140.02;43.60;;;;;;;-0.39;100.00;99365.41;15270163;19;20033;-53
2022/12/01 17:44:30;;;;;;;133.70;44.28;;;;;;;-0.41;100.00;99361.97;15271262;19;20031;-52
2022/12/01 17:49:55;;;;;;;115.97;41.70;;;;;;;-0.42;100.00;99361.13;15274642;19;20090;-56
2022/12/01 17:55:22;;;;;;;127.90;44.63;;;;;;;-0.38;100.00;99361.84;15274593;19;20372;-54
2022/12/01 18:00:47;;;;;;;122.47;44.25;;;;;;;-0.38;100.00;99372.44;15273719;19;20018;-52
2022/12/01 18:06:11;;;;;;;115.78;42.90;;;;;;;-0.39;100.00;99368.91;15270500;19;20036;-54
2022/12/01 18:11:38;;;;;;;110.50;43.00;;;;;;;-0.37;100.00;99359.13;15271047;19;20037;-53
2022/12/01 18:17:03;;;;;;;109.63;42.50;;;;;;;-0.37;100.00;99355.63;15270883;19;20208;-52
2022/12/01 18:22:28;;;;;;;109.75;43.17;;;;;;;-0.39;100.00;99355.66;15267723;19;20039;-50
2022/12/01 18:27:57;;;;;;;105.53;41.72;;;;;;;-0.36;100.00;99347.59;15269128;19;20266;-53
2022/12/01 18:33:22;;;;;;;99.57;41.05;;;;;;;-0.35;100.00;99351.09;15272690;19;20022;-55
2022/12/01 18:38:47;;;;;;;97.53;39.22;;;;;;;-0.34;100.00;99340.44;15270421;19;20343;-53
2022/12/01 18:44:15;;;;;;;93.68;38.53;;;;;;;-0.37;100.00;99340.56;15268385;19;20022;-56
2022/12/01 18:49:39;;;;;;;75.20;33.85;;;;;;;-0.38;100.00;99340.66;15268136;19;20025;-55
2022/12/01 18:55:04;;;;;;;71.20;33.20;;;;;;;-0.37;100.00;99335.28;15248533;19;20018;-55
2022/12/01 19:00:31;;;;;;;72.00;33.55;;;;;;;-0.38;100.00;99332.72;15266799;19;20022;-53
2022/12/01 19:05:56;;;;;;;72.50;34.35;;;;;;;-0.39;100.00;99331.00;15266631;19;20086;-56
2022/12/01 19:11:22;;;;;;;75.55;34.60;;;;;;;-0.37;100.00;99331.78;15262648;19;20022;-58
2022/12/01 19:16:49;;;;;;;76.43;34.55;;;;;;;-0.37;100.00;99332.63;15269048;19;20026;-54
2022/12/01 19:22:14;;;;;;;67.40;33.00;;;;;;;-0.35;100.00;99336.06;15265829;19;20014;-52
2022/12/01 19:27:46;;;;;;;62.00;31.63;;;;;;;-0.34;100.00;99321.03;15267379;19;20025;-55
2022/12/01 19:33:14;;;;;;;;;;;;;;;-0.36;100.00;99321.13;15269283;19;20395;-52
2022/12/01 19:38:39;;;;;;;58.85;30.90;;;;;;;-0.35;100.00;99328.13;15267118;19;19922;-54
2022/12/01 19:44:04;;;;;;;62.38;32.03;;;;;;;-0.33;100.00;99328.94;15269027;19;20038;-55
2022/12/01 19:49:32;;;;;;;55.70;30.23;;;;;;;-0.35;100.00;99320.19;15265049;19;20050;-55
2022/12/01 19:54:56;;;;;;;60.67;31.73;;;;;;;-0.33;100.00;99323.63;15278361;19;20027;-54
2022/12/01 20:00:22;;;;;;;50.40;28.20;;;;;;;-0.33;100.00;99318.34;15280094;19;20018;-50
2022/12/01 20:05:50;;;;;;;48.78;29.00;;;;;;;-0.33;100.00;99320.09;15279125;19;20082;-53
2022/12/01 20:11:16;;;;;;;41.90;25.67;;;;;;;-0.38;100.00;99316.81;15278944;19;20025;-57
2022/12/01 20:16:41;;;;;;;36.13;24.00;;;;;;;-0.46;100.00;99314.53;15280589;19;20025;-55
2022/12/01 20:22:09;;;;;;;33.75;22.55;;;;;;;-0.47;100.00;99320.75;15277990;19;20047;-54
2022/12/01 20:27:41;;;;;;;36.22;23.13;;;;;;;-0.47;100.00;99310.16;15274968;19;20019;-53
2022/12/01 20:33:06;;;;;;;30.95;20.77;;;;;;;-0.52;100.00;99304.19;15279698;19;20020;-53
2022/12/01 20:38:34;;;;;;;28.50;18.88;;;;;;;-0.55;100.00;99302.56;15278457;19;20085;-54
2022/12/01 20:43:58;;;;;;;25.73;18.50;;;;;;;-0.52;100.00;99297.13;15272916;19;20018;-55
2022/12/01 20:49:26;;;;;;;26.23;18.10;;;;;;;-0.53;100.00;99298.06;15276065;19;20024;-52
2022/12/01 20:54:53;;;;;;;24.73;17.70;;;;;;;-0.50;100.00;99292.63;15276820;19;20420;-56
2022/12/01 21:00:20;;;;;;;25.23;18.75;;;;;;;-0.47;100.00;99286.34;15274448;19;20432;-55
2022/12/01 21:05:46;;;;;;;24.48;18.90;;;;;;;-0.47;100.00;99281.03;15276303;19;20058;-55
2022/12/01 21:13:37;;;;;;;23.80;17.77;;;;;;;-0.47;100.00;99273.09;15275291;19;20018;-61
2022/12/01 21:17:18;;;;;;;26.83;19.63;;;;;;;-0.49;100.00;99269.66;15276801;19;20022;-61
2022/12/01 21:22:54;;;;;;;30.70;21.35;;;;;;;-0.45;100.00;99267.72;15272484;19;20486;-58
2022/12/01 21:28:24;;;;;;;29.67;21.20;;;;;;;-0.48;100.00;99266.97;15273486;19;20018;-57
2022/12/01 21:33:49;;;;;;;33.10;23.65;;;;;;;-0.51;100.00;99267.09;15277254;19;20029;-59
2022/12/01 21:39:17;;;;;;;33.60;22.70;;;;;;;-0.51;100.00;99271.50;15276075;19;20495;-57
2022/12/01 21:44:47;;;;;;;33.00;23.25;;;;;;;-0.50;100.00;99268.81;15275750;19;20017;-56
2022/12/01 21:50:19;;;;;;;31.20;22.08;;;;;;;-0.53;100.00;99260.16;15273272;19;20069;-56
2022/12/01 21:55:46;;;;;;;27.90;21.17;;;;;;;-0.52;100.00;99259.19;15271563;19;20097;-82
2022/12/01 22:01:21;;;;;;;31.30;22.35;;;;;;;-0.56;100.00;99255.84;15278621;19;21352;-84
2022/12/01 22:06:48;;;;;;;31.38;21.83;;;;;;;-0.54;100.00;99253.13;15279469;19;20022;-85
2022/12/01 22:12:24;;;;;;;31.55;22.42;;;;;;;-0.55;100.00;99246.97;15285106;19;20042;-82
2022/12/01 22:17:52;;;;;;;30.17;21.55;;;;;;;-0.58;100.00;99249.75;15286044;19;20119;-83
2022/12/01 22:23:17;;;;;;;30.85;22.40;;;;;;;-0.57;100.00;99242.69;15282539;19;20031;-84
2022/12/01 22:28:43;;;;;;;31.83;22.40;;;;;;;-0.59;100.00;99239.25;15281870;19;20015;-84
2022/12/01 22:34:15;;;;;;;33.42;23.50;;;;;;;-0.58;100.00;99236.50;15282408;19;20590;-84
2022/12/01 22:39:42;;;;;;;32.08;22.20;;;;;;;-0.59;100.00;99244.53;15284092;19;20043;-83
2022/12/01 22:45:23;;;;;;;32.08;22.40;;;;;;;-0.62;100.00;99233.16;15287447;19;20018;-84
2022/12/01 22:50:52;;;;;;;31.95;22.15;;;;;;;-0.63;100.00;99231.44;15285974;19;20018;-84
2022/12/01 22:56:35;;;;;;;33.47;23.25;;;;;;;-0.65;100.00;99225.34;15285250;19;20542;-84
2022/12/01 23:02:01;;;;;;;31.30;22.40;;;;;;;-0.66;100.00;99221.00;15302786;19;20014;-84
2022/12/01 23:07:54;;;;;;;31.20;22.35;;;;;;;-0.67;100.00;99218.41;15300867;19;20011;-84
2022/12/01 23:13:22;;;;;;;30.38;22.08;;;;;;;-0.71;100.00;99220.34;15314217;19;20017;-84
2022/12/01 23:18:50;;;;;;;32.47;22.85;;;;;;;-0.70;100.00;99219.44;15345493;19;20006;-82
2022/12/01 23:24:20;;;;;;;33.92;24.25;;;;;;;-0.70;100.00;99230.00;15348554;19;20019;-82
2022/12/01 23:29:59;;;;;;;31.02;21.83;;;;;;;-0.71;100.00;99211.56;15328256;19;20089;-85
2022/12/01 23:35:32;;;;;;;30.92;22.30;;;;;;;-0.73;100.00;99198.41;15280123;19;20043;-52
2022/12/01 23:41:03;;;;;;;28.58;21.58;;;;;;;-0.75;100.00;99202.88;15286586;19;20014;-50
2022/12/01 23:46:30;;;;;;;29.67;21.83;;;;;;;-0.79;100.00;99198.69;15283044;19;20031;-52
2022/12/01 23:51:57;;;;;;;31.27;22.23;;;;;;;-0.78;100.00;99193.31;15282302;19;20362;-53
2022/12/01 23:57:30;;;;;;;30.23;22.48;;;;;;;-0.77;100.00;99194.19;15283332;19;20792;-52
